sensor_id;sensor_type;location;lat;lon;timestamp;pressure;altitude;pressure_sealevel;temperature;humidity
41202;BME280;26936;50.524;8.684;2023-04-25T00:02:03;98650.19;;;8.60;100.00
41202;BME280;26936;50.524;8.684;2023-04-25T00:04:29;98644.91;;;8.62;100.00
41202;BME280;26936;50.524;8.684;2023-04-25T00:06:55;98654.56;;;8.61;100.00
41202;BME280;26936;50.524;8.684;2023-04-25T00:09:21;98650.63;;;8.59;100.00
41202;BME280;26936;50.524;8.684;2023-04-25T00:11:46;98658.34;;;8.67;100.00
41202;BME280;26936;50.524;8.684;2023-04-25T00:14:11;98660.31;;;8.58;100.00
41202;BME280;26936;50.524;8.684;2023-04-25T00:16:37;98659.66;;;8.54;100.00
41202;BME280;26936;50.524;8.684;2023-04-25T00:19:02;98659.31;;;8.52;100.00
41202;BME280;26936;50.524;8.684;2023-04-25T00:21:28;98657.16;;;8.56;100.00
41202;BME280;26936;50.524;8.684;2023-04-25T00:23:54;98661.28;;;8.64;100.00
41202;BME280;26936;50.524;8.684;2023-04-25T00:26:19;98659.41;;;8.61;100.00
41202;BME280;26936;50.524;8.684;2023-04-25T00:28:46;98658.44;;;8.55;100.00
41202;BME280;26936;50.524;8.684;2023-04-25T00:31:11;98668.72;;;8.58;100.00
41202;BME280;26936;50.524;8.684;2023-04-25T00:33:37;98669.81;;;8.60;100.00
41202;BME280;26936;50.524;8.684;2023-04-25T00:36:02;98653.44;;;8.59;100.00
41202;BME280;26936;50.524;8.684;2023-04-25T00:38:27;98656.38;;;8.55;100.00
41202;BME280;26936;50.524;8.684;2023-04-25T00:40:53;98659.31;;;8.52;100.00
41202;BME280;26936;50.524;8.684;2023-04-25T00:43:18;98659.94;;;8.47;100.00
41202;BME280;26936;50.524;8.684;2023-04-25T00:45:46;98664.94;;;8.52;100.00
41202;BME280;26936;50.524;8.684;2023-04-25T00:48:13;98671.16;;;8.47;100.00
41202;BME280;26936;50.524;8.684;2023-04-25T00:50:39;98667.69;;;8.43;100.00
41202;BME280;26936;50.524;8.684;2023-04-25T00:53:06;98665.84;;;8.49;100.00
41202;BME280;26936;50.524;8.684;2023-04-25T00:55:31;98660.03;;;8.43;100.00
41202;BME280;26936;50.524;8.684;2023-04-25T00:57:57;98662.19;;;8.39;100.00
41202;BME280;26936;50.524;8.684;2023-04-25T01:00:23;98663.44;;;8.38;100.00
41202;BME280;26936;50.524;8.684;2023-04-25T01:02:48;98662.84;;;8.43;100.00
41202;BME280;26936;50.524;8.684;2023-04-25T01:05:14;98662.72;;;8.47;100.00
41202;BME280;26936;50.524;8.684;2023-04-25T01:07:40;98651.19;;;8.45;100.00
41202;BME280;26936;50.524;8.684;2023-04-25T01:10:06;98651.94;;;8.45;100.00
41202;BME280;26936;50.524;8.684;2023-04-25T01:12:31;98664.75;;;8.46;95.54
41202;BME280;26936;50.524;8.684;2023-04-25T01:14:57;98662.91;;;8.18;92.92
41202;BME280;26936;50.524;8.684;2023-04-25T01:17:22;98662.69;;;8.25;91.11
41202;BME280;26936;50.524;8.684;2023-04-25T01:19:47;98664.63;;;8.15;89.65
41202;BME280;26936;50.524;8.684;2023-04-25T01:22:14;98659.81;;;8.03;88.72
41202;BME280;26936;50.524;8.684;2023-04-25T01:24:40;98663.78;;;7.93;89.32
41202;BME280;26936;50.524;8.684;2023-04-25T01:27:05;98654.72;;;7.89;88.72
41202;BME280;26936;50.524;8.684;2023-04-25T01:29:31;98655.81;;;7.92;88.94
41202;BME280;26936;50.524;8.684;2023-04-25T01:31:57;98655.03;;;7.91;89.24
41202;BME280;26936;50.524;8.684;2023-04-25T01:34:24;98652.38;;;7.88;89.60
41202;BME280;26936;50.524;8.684;2023-04-25T01:36:50;98643.50;;;7.89;90.35
41202;BME280;26936;50.524;8.684;2023-04-25T01:39:16;98659.06;;;7.90;90.66
41202;BME280;26936;50.524;8.684;2023-04-25T01:41:42;98656.72;;;7.89;91.39
41202;BME280;26936;50.524;8.684;2023-04-25T01:44:08;98662.00;;;7.87;91.69
41202;BME280;26936;50.524;8.684;2023-04-25T01:46:33;98662.09;;;7.83;91.24
41202;BME280;26936;50.524;8.684;2023-04-25T01:48:59;98662.22;;;7.80;91.48
41202;BME280;26936;50.524;8.684;2023-04-25T01:51:24;98661.59;;;7.63;92.37
41202;BME280;26936;50.524;8.684;2023-04-25T01:53:50;98663.28;;;7.61;91.77
41202;BME280;26936;50.524;8.684;2023-04-25T01:56:17;98661.16;;;7.65;91.23
41202;BME280;26936;50.524;8.684;2023-04-25T01:58:42;98657.88;;;7.54;91.70
41202;BME280;26936;50.524;8.684;2023-04-25T02:01:08;98655.34;;;7.47;92.00
41202;BME280;26936;50.524;8.684;2023-04-25T02:03:34;98653.66;;;7.37;91.87
41202;BME280;26936;50.524;8.684;2023-04-25T02:05:59;98660.06;;;7.37;92.24
41202;BME280;26936;50.524;8.684;2023-04-25T02:08:25;98664.41;;;7.38;92.79
41202;BME280;26936;50.524;8.684;2023-04-25T02:10:51;98660.16;;;7.34;92.50
41202;BME280;26936;50.524;8.684;2023-04-25T02:13:17;98662.50;;;7.35;92.78
41202;BME280;26936;50.524;8.684;2023-04-25T02:15:42;98663.72;;;7.34;93.27
41202;BME280;26936;50.524;8.684;2023-04-25T02:18:07;98661.50;;;7.29;93.53
41202;BME280;26936;50.524;8.684;2023-04-25T02:20:33;98663.41;;;7.32;93.49
41202;BME280;26936;50.524;8.684;2023-04-25T02:22:58;98659.81;;;7.32;93.63
41202;BME280;26936;50.524;8.684;2023-04-25T02:25:23;98665.63;;;7.25;93.85
41202;BME280;26936;50.524;8.684;2023-04-25T02:27:49;98667.66;;;7.12;94.54
41202;BME280;26936;50.524;8.684;2023-04-25T02:30:16;98665.75;;;7.09;94.96
41202;BME280;26936;50.524;8.684;2023-04-25T02:32:41;98669.78;;;7.08;95.19
41202;BME280;26936;50.524;8.684;2023-04-25T02:35:07;98671.78;;;7.07;95.36
41202;BME280;26936;50.524;8.684;2023-04-25T02:37:34;98673.13;;;6.90;95.69
41202;BME280;26936;50.524;8.684;2023-04-25T02:39:59;98677.13;;;6.89;96.18
41202;BME280;26936;50.524;8.684;2023-04-25T02:42:26;98675.34;;;6.82;96.50
41202;BME280;26936;50.524;8.684;2023-04-25T02:44:51;98680.72;;;6.77;96.38
41202;BME280;26936;50.524;8.684;2023-04-25T02:47:16;98671.88;;;6.78;96.32
41202;BME280;26936;50.524;8.684;2023-04-25T02:49:41;98671.19;;;6.74;97.01
41202;BME280;26936;50.524;8.684;2023-04-25T02:52:06;98676.53;;;6.69;97.14
41202;BME280;26936;50.524;8.684;2023-04-25T02:54:32;98681.00;;;6.66;97.31
41202;BME280;26936;50.524;8.684;2023-04-25T02:56:57;98674.72;;;6.62;97.56
41202;BME280;26936;50.524;8.684;2023-04-25T02:59:22;98673.41;;;6.67;97.05
41202;BME280;26936;50.524;8.684;2023-04-25T03:01:47;98676.41;;;6.60;97.60
41202;BME280;26936;50.524;8.684;2023-04-25T03:04:13;98679.19;;;6.60;97.14
41202;BME280;26936;50.524;8.684;2023-04-25T03:06:38;98679.75;;;6.55;97.04
41202;BME280;26936;50.524;8.684;2023-04-25T03:09:03;98682.53;;;6.55;97.38
41202;BME280;26936;50.524;8.684;2023-04-25T03:11:29;98680.72;;;6.48;97.92
41202;BME280;26936;50.524;8.684;2023-04-25T03:13:54;98678.03;;;6.45;97.90
41202;BME280;26936;50.524;8.684;2023-04-25T03:16:19;98682.69;;;6.35;99.09
41202;BME280;26936;50.524;8.684;2023-04-25T03:18:45;98675.53;;;6.34;99.43
41202;BME280;26936;50.524;8.684;2023-04-25T03:21:10;98681.66;;;6.29;98.75
41202;BME280;26936;50.524;8.684;2023-04-25T03:23:35;98685.78;;;6.25;99.07
41202;BME280;26936;50.524;8.684;2023-04-25T03:26:00;98690.31;;;6.19;99.39
41202;BME280;26936;50.524;8.684;2023-04-25T03:28:26;98693.66;;;6.14;99.65
41202;BME280;26936;50.524;8.684;2023-04-25T03:30:51;98695.78;;;6.10;100.00
41202;BME280;26936;50.524;8.684;2023-04-25T03:33:16;98693.22;;;6.15;99.62
41202;BME280;26936;50.524;8.684;2023-04-25T03:35:41;98697.19;;;6.02;99.94
41202;BME280;26936;50.524;8.684;2023-04-25T03:38:07;98699.19;;;6.01;100.00
41202;BME280;26936;50.524;8.684;2023-04-25T03:40:33;98693.25;;;5.99;100.00
41202;BME280;26936;50.524;8.684;2023-04-25T03:42:58;98690.75;;;5.89;100.00
41202;BME280;26936;50.524;8.684;2023-04-25T03:45:23;98699.44;;;5.91;99.92
41202;BME280;26936;50.524;8.684;2023-04-25T03:47:48;98704.94;;;5.94;99.81
41202;BME280;26936;50.524;8.684;2023-04-25T03:50:14;98706.78;;;5.85;100.00
41202;BME280;26936;50.524;8.684;2023-04-25T03:52:39;98703.03;;;5.91;100.00
41202;BME280;26936;50.524;8.684;2023-04-25T03:55:05;98708.28;;;5.89;100.00
41202;BME280;26936;50.524;8.684;2023-04-25T03:57:30;98709.22;;;5.83;100.00
41202;BME280;26936;50.524;8.684;2023-04-25T03:59:56;98707.94;;;5.87;100.00
41202;BME280;26936;50.524;8.684;2023-04-25T04:02:21;98709.59;;;5.85;100.00
41202;BME280;26936;50.524;8.684;2023-04-25T04:04:47;98719.56;;;5.86;99.96
41202;BME280;26936;50.524;8.684;2023-04-25T04:07:12;98717.97;;;5.85;100.00
41202;BME280;26936;50.524;8.684;2023-04-25T04:09:37;98715.63;;;5.83;100.00
41202;BME280;26936;50.524;8.684;2023-04-25T04:12:03;98706.78;;;5.85;99.86
41202;BME280;26936;50.524;8.684;2023-04-25T04:14:28;98711.75;;;5.77;99.99
41202;BME280;26936;50.524;8.684;2023-04-25T04:16:53;98707.81;;;5.75;99.82
41202;BME280;26936;50.524;8.684;2023-04-25T04:19:19;98715.75;;;5.76;99.45
41202;BME280;26936;50.524;8.684;2023-04-25T04:21:44;98726.78;;;5.67;98.13
41202;BME280;26936;50.524;8.684;2023-04-25T04:24:10;98726.25;;;5.72;97.94
41202;BME280;26936;50.524;8.684;2023-04-25T04:26:35;98728.69;;;5.70;98.23
41202;BME280;26936;50.524;8.684;2023-04-25T04:29:02;98729.47;;;5.71;98.03
41202;BME280;26936;50.524;8.684;2023-04-25T04:31:27;98732.34;;;5.67;98.33
41202;BME280;26936;50.524;8.684;2023-04-25T04:33:53;98732.28;;;5.71;98.62
41202;BME280;26936;50.524;8.684;2023-04-25T04:36:19;98734.63;;;5.72;97.85
41202;BME280;26936;50.524;8.684;2023-04-25T04:38:48;98733.66;;;5.79;96.58
41202;BME280;26936;50.524;8.684;2023-04-25T04:41:13;98735.53;;;5.85;95.56
41202;BME280;26936;50.524;8.684;2023-04-25T04:43:39;98733.44;;;5.89;94.95
41202;BME280;26936;50.524;8.684;2023-04-25T04:46:04;98734.31;;;5.86;94.89
41202;BME280;26936;50.524;8.684;2023-04-25T04:48:31;98735.88;;;6.03;94.25
41202;BME280;26936;50.524;8.684;2023-04-25T04:51:00;98743.81;;;6.21;93.79
41202;BME280;26936;50.524;8.684;2023-04-25T04:53:25;98737.16;;;6.31;93.12
41202;BME280;26936;50.524;8.684;2023-04-25T04:55:51;98745.00;;;6.36;93.00
41202;BME280;26936;50.524;8.684;2023-04-25T04:58:16;98745.31;;;6.54;91.69
41202;BME280;26936;50.524;8.684;2023-04-25T05:00:41;98738.44;;;6.71;90.25
41202;BME280;26936;50.524;8.684;2023-04-25T05:03:06;98743.13;;;6.74;90.25
41202;BME280;26936;50.524;8.684;2023-04-25T05:05:32;98744.38;;;6.73;90.07
41202;BME280;26936;50.524;8.684;2023-04-25T05:07:57;98742.06;;;6.84;89.41
41202;BME280;26936;50.524;8.684;2023-04-25T05:10:22;98754.31;;;6.90;89.51
41202;BME280;26936;50.524;8.684;2023-04-25T05:12:47;98750.38;;;7.00;88.85
41202;BME280;26936;50.524;8.684;2023-04-25T05:15:13;98750.44;;;7.13;88.08
41202;BME280;26936;50.524;8.684;2023-04-25T05:17:38;98758.19;;;7.46;87.92
41202;BME280;26936;50.524;8.684;2023-04-25T05:20:05;98750.03;;;7.64;85.45
41202;BME280;26936;50.524;8.684;2023-04-25T05:22:31;98754.38;;;8.15;83.22
41202;BME280;26936;50.524;8.684;2023-04-25T05:24:56;98751.81;;;8.55;81.19
41202;BME280;26936;50.524;8.684;2023-04-25T05:27:21;98744.53;;;9.01;79.01
41202;BME280;26936;50.524;8.684;2023-04-25T05:29:46;98748.00;;;9.57;76.23
41202;BME280;26936;50.524;8.684;2023-04-25T05:32:12;98745.28;;;10.24;74.48
41202;BME280;26936;50.524;8.684;2023-04-25T05:34:37;98744.56;;;10.68;70.93
41202;BME280;26936;50.524;8.684;2023-04-25T05:37:02;98755.03;;;10.41;70.40
41202;BME280;26936;50.524;8.684;2023-04-25T05:39:28;98749.38;;;10.50;71.03
41202;BME280;26936;50.524;8.684;2023-04-25T05:41:53;98756.44;;;10.72;70.30
41202;BME280;26936;50.524;8.684;2023-04-25T05:44:19;98760.34;;;10.84;69.27
41202;BME280;26936;50.524;8.684;2023-04-25T05:46:44;98763.47;;;11.22;67.44
41202;BME280;26936;50.524;8.684;2023-04-25T05:49:09;98764.56;;;10.88;68.16
41202;BME280;26936;50.524;8.684;2023-04-25T05:51:35;98770.69;;;11.05;67.40
41202;BME280;26936;50.524;8.684;2023-04-25T05:54:00;98775.38;;;10.63;68.68
41202;BME280;26936;50.524;8.684;2023-04-25T05:56:25;98777.25;;;11.20;67.73
41202;BME280;26936;50.524;8.684;2023-04-25T05:58:51;98774.84;;;12.05;63.69
41202;BME280;26936;50.524;8.684;2023-04-25T06:01:16;98768.84;;;12.60;61.56
41202;BME280;26936;50.524;8.684;2023-04-25T06:03:41;98779.94;;;12.16;62.45
41202;BME280;26936;50.524;8.684;2023-04-25T06:06:08;98777.56;;;12.23;63.00
41202;BME280;26936;50.524;8.684;2023-04-25T06:08:34;98779.22;;;13.24;60.46
41202;BME280;26936;50.524;8.684;2023-04-25T06:10:59;98774.06;;;13.81;57.97
41202;BME280;26936;50.524;8.684;2023-04-25T06:13:24;98768.78;;;13.74;56.88
41202;BME280;26936;50.524;8.684;2023-04-25T06:15:49;98774.06;;;13.23;59.62
41202;BME280;26936;50.524;8.684;2023-04-25T06:18:15;98778.44;;;13.68;58.29
41202;BME280;26936;50.524;8.684;2023-04-25T06:20:40;98776.50;;;13.74;58.18
41202;BME280;26936;50.524;8.684;2023-04-25T06:23:05;98777.56;;;13.91;56.71
41202;BME280;26936;50.524;8.684;2023-04-25T06:25:30;98775.72;;;14.71;55.42
41202;BME280;26936;50.524;8.684;2023-04-25T06:27:56;98774.69;;;14.94;54.90
41202;BME280;26936;50.524;8.684;2023-04-25T06:30:21;98781.56;;;15.08;54.18
41202;BME280;26936;50.524;8.684;2023-04-25T06:32:50;98784.28;;;14.42;54.96
41202;BME280;26936;50.524;8.684;2023-04-25T06:35:15;98788.28;;;14.01;55.91
41202;BME280;26936;50.524;8.684;2023-04-25T06:37:41;98785.88;;;13.36;57.50
41202;BME280;26936;50.524;8.684;2023-04-25T06:40:07;98790.84;;;13.70;57.26
41202;BME280;26936;50.524;8.684;2023-04-25T06:42:32;98784.28;;;13.79;57.50
41202;BME280;26936;50.524;8.684;2023-04-25T06:44:57;98791.91;;;13.43;58.50
41202;BME280;26936;50.524;8.684;2023-04-25T06:47:22;98801.75;;;12.72;60.46
41202;BME280;26936;50.524;8.684;2023-04-25T06:49:48;98796.28;;;12.45;63.02
41202;BME280;26936;50.524;8.684;2023-04-25T06:52:13;98789.91;;;12.59;63.28
41202;BME280;26936;50.524;8.684;2023-04-25T06:54:38;98800.31;;;12.20;63.49
41202;BME280;26936;50.524;8.684;2023-04-25T06:57:04;98802.97;;;12.23;63.52
41202;BME280;26936;50.524;8.684;2023-04-25T06:59:29;98808.59;;;11.91;64.96
41202;BME280;26936;50.524;8.684;2023-04-25T07:01:54;98808.81;;;11.69;66.35
41202;BME280;26936;50.524;8.684;2023-04-25T07:04:20;98810.75;;;11.27;67.08
41202;BME280;26936;50.524;8.684;2023-04-25T07:06:45;98806.44;;;11.86;65.21
41202;BME280;26936;50.524;8.684;2023-04-25T07:09:12;98802.66;;;11.89;66.72
41202;BME280;26936;50.524;8.684;2023-04-25T07:11:37;98803.78;;;11.73;67.72
41202;BME280;26936;50.524;8.684;2023-04-25T07:14:03;98807.91;;;12.38;65.78
41202;BME280;26936;50.524;8.684;2023-04-25T07:16:28;98816.34;;;12.70;63.62
41202;BME280;26936;50.524;8.684;2023-04-25T07:18:54;98813.28;;;13.59;60.86
41202;BME280;26936;50.524;8.684;2023-04-25T07:21:19;98809.06;;;13.40;60.34
41202;BME280;26936;50.524;8.684;2023-04-25T07:23:44;98811.53;;;13.61;60.80
41202;BME280;26936;50.524;8.684;2023-04-25T07:26:10;98808.47;;;12.98;61.94
41202;BME280;26936;50.524;8.684;2023-04-25T07:28:35;98818.53;;;12.75;63.12
41202;BME280;26936;50.524;8.684;2023-04-25T07:31:00;98827.78;;;12.19;65.27
41202;BME280;26936;50.524;8.684;2023-04-25T07:33:27;98831.00;;;12.27;63.95
41202;BME280;26936;50.524;8.684;2023-04-25T07:35:52;98820.72;;;12.95;62.19
41202;BME280;26936;50.524;8.684;2023-04-25T07:38:18;98820.56;;;13.36;60.36
41202;BME280;26936;50.524;8.684;2023-04-25T07:40:43;98820.41;;;13.84;58.34
41202;BME280;26936;50.524;8.684;2023-04-25T07:43:08;98816.13;;;14.03;57.50
41202;BME280;26936;50.524;8.684;2023-04-25T07:45:33;98826.16;;;13.45;58.82
41202;BME280;26936;50.524;8.684;2023-04-25T07:47:59;98828.44;;;12.94;59.16
41202;BME280;26936;50.524;8.684;2023-04-25T07:50:24;98834.03;;;12.23;60.93
41202;BME280;26936;50.524;8.684;2023-04-25T07:52:49;98838.13;;;12.79;61.24
41202;BME280;26936;50.524;8.684;2023-04-25T07:55:15;98830.16;;;12.68;60.58
41202;BME280;26936;50.524;8.684;2023-04-25T07:57:40;98844.94;;;12.40;60.41
41202;BME280;26936;50.524;8.684;2023-04-25T08:00:06;98836.47;;;12.40;61.58
41202;BME280;26936;50.524;8.684;2023-04-25T08:02:34;98844.00;;;12.90;59.86
41202;BME280;26936;50.524;8.684;2023-04-25T08:05:00;98845.84;;;12.13;61.40
41202;BME280;26936;50.524;8.684;2023-04-25T08:07:25;98847.78;;;12.30;60.52
41202;BME280;26936;50.524;8.684;2023-04-25T08:09:50;98851.53;;;12.04;61.96
41202;BME280;26936;50.524;8.684;2023-04-25T08:12:16;98858.81;;;11.69;62.45
41202;BME280;26936;50.524;8.684;2023-04-25T08:14:41;98864.91;;;11.58;63.93
41202;BME280;26936;50.524;8.684;2023-04-25T08:17:06;98875.25;;;11.43;64.21
41202;BME280;26936;50.524;8.684;2023-04-25T08:19:31;98864.09;;;11.94;62.01
41202;BME280;26936;50.524;8.684;2023-04-25T08:21:57;98869.03;;;12.17;61.65
41202;BME280;26936;50.524;8.684;2023-04-25T08:24:22;98876.19;;;11.85;62.28
41202;BME280;26936;50.524;8.684;2023-04-25T08:26:48;98873.81;;;11.75;62.56
41202;BME280;26936;50.524;8.684;2023-04-25T08:29:14;98860.97;;;11.83;62.68
41202;BME280;26936;50.524;8.684;2023-04-25T08:31:39;98872.44;;;11.79;62.28
41202;BME280;26936;50.524;8.684;2023-04-25T08:34:04;98872.53;;;12.45;61.24
41202;BME280;26936;50.524;8.684;2023-04-25T08:36:29;98871.44;;;12.98;58.23
41202;BME280;26936;50.524;8.684;2023-04-25T08:38:56;98886.38;;;13.22;59.03
41202;BME280;26936;50.524;8.684;2023-04-25T08:41:21;98881.09;;;13.30;57.69
41202;BME280;26936;50.524;8.684;2023-04-25T08:43:48;98886.38;;;13.22;58.52
41202;BME280;26936;50.524;8.684;2023-04-25T08:46:19;98891.75;;;12.88;59.93
41202;BME280;26936;50.524;8.684;2023-04-25T08:48:45;98892.09;;;12.48;60.72
41202;BME280;26936;50.524;8.684;2023-04-25T08:51:18;98903.41;;;12.81;59.16
41202;BME280;26936;50.524;8.684;2023-04-25T08:53:46;98901.25;;;12.43;59.18
41202;BME280;26936;50.524;8.684;2023-04-25T08:56:15;98912.97;;;12.00;60.76
41202;BME280;26936;50.524;8.684;2023-04-25T08:58:43;98905.47;;;12.80;60.20
41202;BME280;26936;50.524;8.684;2023-04-25T09:01:08;98905.41;;;13.36;59.83
41202;BME280;26936;50.524;8.684;2023-04-25T09:03:35;98919.28;;;13.11;59.58
41202;BME280;26936;50.524;8.684;2023-04-25T09:06:01;98919.53;;;12.57;60.18
41202;BME280;26936;50.524;8.684;2023-04-25T09:08:26;98920.56;;;12.36;61.02
41202;BME280;26936;50.524;8.684;2023-04-25T09:10:51;98933.81;;;12.11;57.43
41202;BME280;26936;50.524;8.684;2023-04-25T09:13:25;98934.16;;;11.68;59.08
41202;BME280;26936;50.524;8.684;2023-04-25T09:15:53;98944.66;;;11.59;58.24
41202;BME280;26936;50.524;8.684;2023-04-25T09:18:24;98938.06;;;11.44;58.30
41202;BME280;26936;50.524;8.684;2023-04-25T09:20:51;98943.09;;;11.40;58.35
41202;BME280;26936;50.524;8.684;2023-04-25T09:23:18;98944.28;;;11.03;62.04
41202;BME280;26936;50.524;8.684;2023-04-25T09:25:47;98951.38;;;11.34;63.16
41202;BME280;26936;50.524;8.684;2023-04-25T09:28:12;98952.81;;;11.75;61.80
41202;BME280;26936;50.524;8.684;2023-04-25T09:30:37;98951.88;;;11.69;62.00
41202;BME280;26936;50.524;8.684;2023-04-25T09:33:07;98961.13;;;12.05;59.75
41202;BME280;26936;50.524;8.684;2023-04-25T09:35:43;98967.03;;;12.25;57.66
41202;BME280;26936;50.524;8.684;2023-04-25T09:38:10;98975.00;;;12.36;58.58
41202;BME280;26936;50.524;8.684;2023-04-25T09:40:39;98976.72;;;12.33;58.63
41202;BME280;26936;50.524;8.684;2023-04-25T09:43:29;98974.56;;;12.70;57.66
41202;BME280;26936;50.524;8.684;2023-04-25T09:45:54;98978.59;;;12.46;56.38
41202;BME280;26936;50.524;8.684;2023-04-25T09:48:25;98971.75;;;12.61;55.01
41202;BME280;26936;50.524;8.684;2023-04-25T09:53:28;98973.75;;;12.79;56.06
41202;BME280;26936;50.524;8.684;2023-04-25T09:55:53;98978.78;;;13.16;54.90
41202;BME280;26936;50.524;8.684;2023-04-25T09:58:20;98980.88;;;13.30;56.13
41202;BME280;26936;50.524;8.684;2023-04-25T10:00:46;98986.66;;;13.59;53.63
41202;BME280;26936;50.524;8.684;2023-04-25T10:03:12;98979.03;;;14.27;53.10
41202;BME280;26936;50.524;8.684;2023-04-25T10:05:37;98976.72;;;14.17;49.96
41202;BME280;26936;50.524;8.684;2023-04-25T10:08:03;98973.63;;;13.77;51.61
41202;BME280;26936;50.524;8.684;2023-04-25T10:10:32;98983.28;;;13.70;50.15
41202;BME280;26936;50.524;8.684;2023-04-25T10:13:03;98983.63;;;13.39;54.23
41202;BME280;26936;50.524;8.684;2023-04-25T10:15:28;98990.97;;;13.93;51.25
41202;BME280;26936;50.524;8.684;2023-04-25T10:17:55;98987.81;;;13.91;52.66
41202;BME280;26936;50.524;8.684;2023-04-25T10:20:22;98985.81;;;14.21;51.36
41202;BME280;26936;50.524;8.684;2023-04-25T10:22:47;98992.75;;;13.67;52.44
41202;BME280;26936;50.524;8.684;2023-04-25T10:25:14;98987.44;;;13.36;52.49
41202;BME280;26936;50.524;8.684;2023-04-25T10:27:39;98991.00;;;13.22;53.08
41202;BME280;26936;50.524;8.684;2023-04-25T10:30:09;98990.97;;;12.90;53.82
41202;BME280;26936;50.524;8.684;2023-04-25T10:32:39;98994.50;;;12.67;55.72
41202;BME280;26936;50.524;8.684;2023-04-25T10:35:16;98989.81;;;12.64;54.58
41202;BME280;26936;50.524;8.684;2023-04-25T10:38:08;98990.78;;;12.61;54.93
41202;BME280;26936;50.524;8.684;2023-04-25T10:40:34;99000.22;;;12.49;55.02
41202;BME280;26936;50.524;8.684;2023-04-25T10:45:56;98996.22;;;12.73;54.17
41202;BME280;26936;50.524;8.684;2023-04-25T10:48:25;98992.44;;;13.18;53.84
41202;BME280;26936;50.524;8.684;2023-04-25T10:51:07;98994.72;;;13.05;51.49
41202;BME280;26936;50.524;8.684;2023-04-25T10:53:33;99002.69;;;12.97;52.36
41202;BME280;26936;50.524;8.684;2023-04-25T10:55:59;99012.84;;;12.71;50.05
41202;BME280;26936;50.524;8.684;2023-04-25T10:58:24;99001.41;;;12.15;53.74
41202;BME280;26936;50.524;8.684;2023-04-25T11:00:49;99005.78;;;12.25;52.92
41202;BME280;26936;50.524;8.684;2023-04-25T11:03:16;99013.94;;;11.69;54.64
41202;BME280;26936;50.524;8.684;2023-04-25T11:05:43;99012.22;;;11.89;55.59
41202;BME280;26936;50.524;8.684;2023-04-25T11:08:13;99016.88;;;11.47;57.61
41202;BME280;26936;50.524;8.684;2023-04-25T11:10:40;99020.00;;;11.40;55.96
41202;BME280;26936;50.524;8.684;2023-04-25T11:13:05;99021.41;;;11.45;55.93
41202;BME280;26936;50.524;8.684;2023-04-25T11:15:30;99021.47;;;11.72;57.34
41202;BME280;26936;50.524;8.684;2023-04-25T11:17:55;99021.50;;;11.81;56.52
41202;BME280;26936;50.524;8.684;2023-04-25T11:20:22;99018.66;;;11.81;57.63
41202;BME280;26936;50.524;8.684;2023-04-25T11:22:50;99017.69;;;12.11;55.23
41202;BME280;26936;50.524;8.684;2023-04-25T11:25:16;99015.34;;;12.18;53.68
41202;BME280;26936;50.524;8.684;2023-04-25T11:27:51;99015.19;;;12.13;54.59
41202;BME280;26936;50.524;8.684;2023-04-25T11:30:18;99013.59;;;12.39;52.38
41202;BME280;26936;50.524;8.684;2023-04-25T11:32:43;99018.34;;;12.15;53.37
41202;BME280;26936;50.524;8.684;2023-04-25T11:35:09;99020.84;;;11.77;55.22
41202;BME280;26936;50.524;8.684;2023-04-25T11:37:35;99022.13;;;11.76;55.02
41202;BME280;26936;50.524;8.684;2023-04-25T11:40:02;99032.78;;;11.81;55.90
41202;BME280;26936;50.524;8.684;2023-04-25T11:42:28;99030.38;;;11.61;55.01
41202;BME280;26936;50.524;8.684;2023-04-25T11:44:54;99026.13;;;11.57;54.78
41202;BME280;26936;50.524;8.684;2023-04-25T11:47:19;99034.59;;;11.48;55.68
41202;BME280;26936;50.524;8.684;2023-04-25T11:49:45;99036.50;;;11.60;55.13
41202;BME280;26936;50.524;8.684;2023-04-25T11:52:10;99040.22;;;11.39;55.07
41202;BME280;26936;50.524;8.684;2023-04-25T11:54:36;99044.91;;;11.42;57.19
41202;BME280;26936;50.524;8.684;2023-04-25T11:57:02;99031.66;;;11.69;55.30
41202;BME280;26936;50.524;8.684;2023-04-25T11:59:28;99036.06;;;12.06;54.31
41202;BME280;26936;50.524;8.684;2023-04-25T12:01:53;99040.91;;;12.15;55.32
41202;BME280;26936;50.524;8.684;2023-04-25T12:04:20;99042.63;;;12.21;56.56
41202;BME280;26936;50.524;8.684;2023-04-25T12:06:47;99052.97;;;12.43;52.07
41202;BME280;26936;50.524;8.684;2023-04-25T12:09:14;99043.22;;;12.53;54.31
41202;BME280;26936;50.524;8.684;2023-04-25T12:11:48;99042.00;;;12.45;54.76
41202;BME280;26936;50.524;8.684;2023-04-25T12:14:31;99051.97;;;12.55;54.92
41202;BME280;26936;50.524;8.684;2023-04-25T12:16:58;99054.75;;;12.73;53.83
41202;BME280;26936;50.524;8.684;2023-04-25T12:19:24;99054.88;;;12.87;52.18
41202;BME280;26936;50.524;8.684;2023-04-25T12:21:50;99048.75;;;13.30;54.74
41202;BME280;26936;50.524;8.684;2023-04-25T12:24:23;99044.25;;;13.71;52.73
41202;BME280;26936;50.524;8.684;2023-04-25T12:26:58;99043.53;;;13.38;52.10
41202;BME280;26936;50.524;8.684;2023-04-25T12:29:26;99056.94;;;12.87;51.48
41202;BME280;26936;50.524;8.684;2023-04-25T12:31:53;99039.97;;;12.36;52.08
41202;BME280;26936;50.524;8.684;2023-04-25T12:34:19;99038.88;;;12.24;53.20
41202;BME280;26936;50.524;8.684;2023-04-25T12:36:45;99052.19;;;12.33;53.71
41202;BME280;26936;50.524;8.684;2023-04-25T12:39:22;99039.34;;;12.14;54.16
41202;BME280;26936;50.524;8.684;2023-04-25T12:41:48;99051.09;;;12.12;55.05
41202;BME280;26936;50.524;8.684;2023-04-25T12:44:14;99050.44;;;12.54;56.67
41202;BME280;26936;50.524;8.684;2023-04-25T12:46:40;99040.59;;;12.31;52.95
41202;BME280;26936;50.524;8.684;2023-04-25T12:49:06;99042.63;;;12.40;54.67
41202;BME280;26936;50.524;8.684;2023-04-25T12:51:33;99052.97;;;12.43;53.26
41202;BME280;26936;50.524;8.684;2023-04-25T12:53:59;99044.09;;;12.77;53.79
41202;BME280;26936;50.524;8.684;2023-04-25T12:56:26;99049.75;;;12.77;52.58
41202;BME280;26936;50.524;8.684;2023-04-25T12:58:52;99051.19;;;12.63;52.76
41202;BME280;26936;50.524;8.684;2023-04-25T13:01:17;99051.13;;;12.81;55.05
41202;BME280;26936;50.524;8.684;2023-04-25T13:03:43;99058.31;;;13.33;53.21